sensor_id;sensor_type;location;lat;lon;timestamp;P1;durP1;ratioP1;P2;durP2;ratioP2
7231;SDS011;3657;49.630;11.018;2023-02-04T00:00:03;6.50;;;5.87;;
7231;SDS011;3657;49.630;11.018;2023-02-04T00:02:32;10.00;;;6.27;;
7231;SDS011;3657;49.630;11.018;2023-02-04T00:04:58;7.37;;;6.20;;
7231;SDS011;3657;49.630;11.018;2023-02-04T00:07:25;5.80;;;5.37;;
7231;SDS011;3657;49.630;11.018;2023-02-04T00:09:52;7.77;;;7.10;;
7231;SDS011;3657;49.630;11.018;2023-02-04T00:12:20;7.43;;;6.73;;
7231;SDS011;3657;49.630;11.018;2023-02-04T00:14:47;7.23;;;6.53;;
7231;SDS011;3657;49.630;11.018;2023-02-04T00:17:13;9.33;;;6.17;;
7231;SDS011;3657;49.630;11.018;2023-02-04T00:19:40;8.37;;;6.83;;
7231;SDS011;3657;49.630;11.018;2023-02-04T00:22:07;7.40;;;6.20;;
7231;SDS011;3657;49.630;11.018;2023-02-04T00:24:34;6.37;;;5.90;;
7231;SDS011;3657;49.630;11.018;2023-02-04T00:27:01;8.90;;;7.00;;
7231;SDS011;3657;49.630;11.018;2023-02-04T00:29:30;6.77;;;5.67;;
7231;SDS011;3657;49.630;11.018;2023-02-04T00:31:57;5.67;;;5.17;;
7231;SDS011;3657;49.630;11.018;2023-02-04T00:34:23;7.17;;;6.43;;
7231;SDS011;3657;49.630;11.018;2023-02-04T00:36:50;9.87;;;6.27;;
7231;SDS011;3657;49.630;11.018;2023-02-04T00:39:17;8.20;;;6.23;;
7231;SDS011;3657;49.630;11.018;2023-02-04T00:41:43;6.87;;;6.20;;
7231;SDS011;3657;49.630;11.018;2023-02-04T00:44:10;7.47;;;7.00;;
7231;SDS011;3657;49.630;11.018;2023-02-04T00:46:39;9.33;;;5.97;;
7231;SDS011;3657;49.630;11.018;2023-02-04T00:49:06;8.00;;;6.50;;
7231;SDS011;3657;49.630;11.018;2023-02-04T00:51:34;9.63;;;6.57;;
7231;SDS011;3657;49.630;11.018;2023-02-04T00:54:02;9.80;;;7.00;;
7231;SDS011;3657;49.630;11.018;2023-02-04T00:56:29;7.77;;;6.97;;
7231;SDS011;3657;49.630;11.018;2023-02-04T00:58:55;5.80;;;5.50;;
7231;SDS011;3657;49.630;11.018;2023-02-04T01:01:22;7.60;;;6.90;;
7231;SDS011;3657;49.630;11.018;2023-02-04T01:03:50;8.43;;;5.67;;
7231;SDS011;3657;49.630;11.018;2023-02-04T01:06:17;6.90;;;6.30;;
7231;SDS011;3657;49.630;11.018;2023-02-04T01:08:43;13.37;;;6.77;;
7231;SDS011;3657;49.630;11.018;2023-02-04T01:11:10;6.30;;;5.90;;
7231;SDS011;3657;49.630;11.018;2023-02-04T01:13:37;6.03;;;5.43;;
7231;SDS011;3657;49.630;11.018;2023-02-04T01:16:04;7.43;;;6.63;;
7231;SDS011;3657;49.630;11.018;2023-02-04T01:18:30;6.00;;;5.50;;
7231;SDS011;3657;49.630;11.018;2023-02-04T01:20:58;6.23;;;5.63;;
7231;SDS011;3657;49.630;11.018;2023-02-04T01:23:25;7.30;;;6.60;;
7231;SDS011;3657;49.630;11.018;2023-02-04T01:25:52;10.80;;;6.43;;
7231;SDS011;3657;49.630;11.018;2023-02-04T01:28:19;7.63;;;5.93;;
7231;SDS011;3657;49.630;11.018;2023-02-04T01:30:45;8.40;;;6.30;;
7231;SDS011;3657;49.630;11.018;2023-02-04T01:33:12;6.90;;;6.00;;
7231;SDS011;3657;49.630;11.018;2023-02-04T01:35:39;10.03;;;5.30;;
7231;SDS011;3657;49.630;11.018;2023-02-04T01:38:06;6.00;;;5.60;;
7231;SDS011;3657;49.630;11.018;2023-02-04T01:40:33;7.30;;;6.07;;
7231;SDS011;3657;49.630;11.018;2023-02-04T01:43:00;8.93;;;6.53;;
7231;SDS011;3657;49.630;11.018;2023-02-04T01:45:27;7.23;;;5.53;;
7231;SDS011;3657;49.630;11.018;2023-02-04T01:47:54;6.20;;;5.70;;
7231;SDS011;3657;49.630;11.018;2023-02-04T01:50:21;6.00;;;5.60;;
7231;SDS011;3657;49.630;11.018;2023-02-04T01:52:48;8.13;;;4.90;;
7231;SDS011;3657;49.630;11.018;2023-02-04T01:55:17;5.97;;;4.40;;
7231;SDS011;3657;49.630;11.018;2023-02-04T01:57:45;7.23;;;4.83;;
7231;SDS011;3657;49.630;11.018;2023-02-04T02:00:18;9.23;;;4.83;;
7231;SDS011;3657;49.630;11.018;2023-02-04T02:02:50;5.70;;;5.17;;
7231;SDS011;3657;49.630;11.018;2023-02-04T02:05:18;4.57;;;4.27;;
7231;SDS011;3657;49.630;11.018;2023-02-04T02:07:47;5.83;;;5.27;;
7231;SDS011;3657;49.630;11.018;2023-02-04T02:10:16;6.13;;;4.57;;
7231;SDS011;3657;49.630;11.018;2023-02-04T02:12:43;8.70;;;5.27;;
7231;SDS011;3657;49.630;11.018;2023-02-04T02:15:11;13.80;;;5.50;;
7231;SDS011;3657;49.630;11.018;2023-02-04T02:17:39;5.07;;;4.60;;
7231;SDS011;3657;49.630;11.018;2023-02-04T02:20:07;4.73;;;4.27;;
7231;SDS011;3657;49.630;11.018;2023-02-04T02:22:36;5.17;;;4.67;;
7231;SDS011;3657;49.630;11.018;2023-02-04T02:25:12;5.87;;;4.30;;
7231;SDS011;3657;49.630;11.018;2023-02-04T02:27:40;4.90;;;4.30;;
7231;SDS011;3657;49.630;11.018;2023-02-04T02:30:07;7.47;;;5.47;;
7231;SDS011;3657;49.630;11.018;2023-02-04T02:32:36;4.90;;;4.50;;
7231;SDS011;3657;49.630;11.018;2023-02-04T02:35:04;4.33;;;3.93;;
7231;SDS011;3657;49.630;11.018;2023-02-04T02:37:31;7.93;;;4.27;;
7231;SDS011;3657;49.630;11.018;2023-02-04T02:39:58;6.47;;;3.93;;
7231;SDS011;3657;49.630;11.018;2023-02-04T02:42:26;6.33;;;4.10;;
7231;SDS011;3657;49.630;11.018;2023-02-04T02:44:53;4.90;;;4.40;;
7231;SDS011;3657;49.630;11.018;2023-02-04T02:47:20;6.10;;;4.73;;
7231;SDS011;3657;49.630;11.018;2023-02-04T02:49:48;6.03;;;4.80;;
7231;SDS011;3657;49.630;11.018;2023-02-04T02:52:16;5.50;;;3.67;;
7231;SDS011;3657;49.630;11.018;2023-02-04T02:54:44;5.17;;;4.63;;
7231;SDS011;3657;49.630;11.018;2023-02-04T02:57:11;5.67;;;4.23;;
7231;SDS011;3657;49.630;11.018;2023-02-04T02:59:41;4.17;;;3.83;;
7231;SDS011;3657;49.630;11.018;2023-02-04T03:02:08;4.70;;;4.30;;
7231;SDS011;3657;49.630;11.018;2023-02-04T03:04:37;7.37;;;4.17;;
7231;SDS011;3657;49.630;11.018;2023-02-04T03:07:06;6.43;;;4.23;;
7231;SDS011;3657;49.630;11.018;2023-02-04T03:09:33;6.80;;;3.73;;
7231;SDS011;3657;49.630;11.018;2023-02-04T03:12:01;10.80;;;5.20;;
7231;SDS011;3657;49.630;11.018;2023-02-04T03:14:29;4.50;;;4.10;;
7231;SDS011;3657;49.630;11.018;2023-02-04T03:16:57;4.90;;;4.40;;
7231;SDS011;3657;49.630;11.018;2023-02-04T03:19:26;5.67;;;4.50;;
7231;SDS011;3657;49.630;11.018;2023-02-04T03:21:53;5.23;;;4.73;;
7231;SDS011;3657;49.630;11.018;2023-02-04T03:24:21;7.27;;;4.23;;
7231;SDS011;3657;49.630;11.018;2023-02-04T03:26:48;6.20;;;4.20;;
7231;SDS011;3657;49.630;11.018;2023-02-04T03:29:15;4.13;;;3.83;;
7231;SDS011;3657;49.630;11.018;2023-02-04T03:31:41;11.63;;;4.43;;
7231;SDS011;3657;49.630;11.018;2023-02-04T03:34:10;4.33;;;3.93;;
7231;SDS011;3657;49.630;11.018;2023-02-04T03:36:36;6.43;;;4.90;;
7231;SDS011;3657;49.630;11.018;2023-02-04T03:39:03;3.87;;;3.57;;
7231;SDS011;3657;49.630;11.018;2023-02-04T03:41:30;5.03;;;4.53;;
7231;SDS011;3657;49.630;11.018;2023-02-04T03:43:57;5.20;;;4.70;;
7231;SDS011;3657;49.630;11.018;2023-02-04T03:46:23;4.77;;;4.43;;
7231;SDS011;3657;49.630;11.018;2023-02-04T03:48:51;5.80;;;4.63;;
7231;SDS011;3657;49.630;11.018;2023-02-04T03:51:19;7.93;;;4.13;;
7231;SDS011;3657;49.630;11.018;2023-02-04T03:53:46;4.40;;;4.07;;
7231;SDS011;3657;49.630;11.018;2023-02-04T03:56:12;6.50;;;4.17;;
7231;SDS011;3657;49.630;11.018;2023-02-04T03:58:39;5.43;;;4.77;;
7231;SDS011;3657;49.630;11.018;2023-02-04T04:01:06;4.60;;;4.20;;
7231;SDS011;3657;49.630;11.018;2023-02-04T04:03:32;8.00;;;4.70;;
7231;SDS011;3657;49.630;11.018;2023-02-04T04:05:59;4.33;;;3.27;;
7231;SDS011;3657;49.630;11.018;2023-02-04T04:08:27;5.50;;;3.87;;
7231;SDS011;3657;49.630;11.018;2023-02-04T04:10:53;5.70;;;4.23;;
7231;SDS011;3657;49.630;11.018;2023-02-04T04:13:20;4.53;;;4.13;;
7231;SDS011;3657;49.630;11.018;2023-02-04T04:15:47;4.50;;;4.00;;
7231;SDS011;3657;49.630;11.018;2023-02-04T04:18:13;4.13;;;3.73;;
7231;SDS011;3657;49.630;11.018;2023-02-04T04:20:40;6.83;;;4.27;;
7231;SDS011;3657;49.630;11.018;2023-02-04T04:23:07;5.37;;;4.17;;
7231;SDS011;3657;49.630;11.018;2023-02-04T04:25:35;10.93;;;4.80;;
7231;SDS011;3657;49.630;11.018;2023-02-04T04:28:01;5.27;;;4.47;;
7231;SDS011;3657;49.630;11.018;2023-02-04T04:30:28;7.90;;;5.10;;
7231;SDS011;3657;49.630;11.018;2023-02-04T04:32:55;4.73;;;4.03;;
7231;SDS011;3657;49.630;11.018;2023-02-04T04:35:21;10.43;;;4.50;;
7231;SDS011;3657;49.630;11.018;2023-02-04T04:37:48;5.67;;;3.77;;
7231;SDS011;3657;49.630;11.018;2023-02-04T04:40:15;6.87;;;3.80;;
7231;SDS011;3657;49.630;11.018;2023-02-04T04:42:43;3.93;;;3.63;;
7231;SDS011;3657;49.630;11.018;2023-02-04T04:45:10;5.40;;;3.90;;
7231;SDS011;3657;49.630;11.018;2023-02-04T04:47:38;11.50;;;3.97;;
7231;SDS011;3657;49.630;11.018;2023-02-04T04:50:05;5.27;;;4.13;;
7231;SDS011;3657;49.630;11.018;2023-02-04T04:52:32;7.37;;;4.60;;
7231;SDS011;3657;49.630;11.018;2023-02-04T04:54:58;5.47;;;4.20;;
7231;SDS011;3657;49.630;11.018;2023-02-04T04:57:25;5.17;;;3.50;;
7231;SDS011;3657;49.630;11.018;2023-02-04T04:59:53;7.03;;;4.33;;
7231;SDS011;3657;49.630;11.018;2023-02-04T05:02:20;3.93;;;3.60;;
7231;SDS011;3657;49.630;11.018;2023-02-04T05:04:46;6.50;;;3.90;;
7231;SDS011;3657;49.630;11.018;2023-02-04T05:07:13;6.13;;;4.27;;
7231;SDS011;3657;49.630;11.018;2023-02-04T05:09:40;8.37;;;4.20;;
7231;SDS011;3657;49.630;11.018;2023-02-04T05:12:06;5.03;;;3.60;;
7231;SDS011;3657;49.630;11.018;2023-02-04T05:14:33;4.37;;;3.97;;
7231;SDS011;3657;49.630;11.018;2023-02-04T05:17:01;7.60;;;4.00;;
7231;SDS011;3657;49.630;11.018;2023-02-04T05:19:28;7.47;;;4.30;;
7231;SDS011;3657;49.630;11.018;2023-02-04T05:21:54;3.77;;;3.47;;
7231;SDS011;3657;49.630;11.018;2023-02-04T05:24:21;4.50;;;3.27;;
7231;SDS011;3657;49.630;11.018;2023-02-04T05:26:48;4.90;;;4.43;;
7231;SDS011;3657;49.630;11.018;2023-02-04T05:29:15;7.07;;;4.07;;
7231;SDS011;3657;49.630;11.018;2023-02-04T05:31:41;4.83;;;4.37;;
7231;SDS011;3657;49.630;11.018;2023-02-04T05:34:09;7.57;;;4.40;;
7231;SDS011;3657;49.630;11.018;2023-02-04T05:36:36;5.00;;;3.77;;
7231;SDS011;3657;49.630;11.018;2023-02-04T05:39:03;5.87;;;4.87;;
7231;SDS011;3657;49.630;11.018;2023-02-04T05:41:29;10.50;;;4.90;;
7231;SDS011;3657;49.630;11.018;2023-02-04T05:43:56;5.07;;;4.00;;
7231;SDS011;3657;49.630;11.018;2023-02-04T05:46:22;8.50;;;4.47;;
7231;SDS011;3657;49.630;11.018;2023-02-04T05:48:49;5.83;;;4.27;;
7231;SDS011;3657;49.630;11.018;2023-02-04T05:51:17;5.03;;;3.90;;
7231;SDS011;3657;49.630;11.018;2023-02-04T05:53:44;6.73;;;4.17;;
7231;SDS011;3657;49.630;11.018;2023-02-04T05:56:11;6.13;;;4.10;;
7231;SDS011;3657;49.630;11.018;2023-02-04T05:58:37;5.10;;;4.20;;
7231;SDS011;3657;49.630;11.018;2023-02-04T06:01:04;7.93;;;4.30;;
7231;SDS011;3657;49.630;11.018;2023-02-04T06:03:31;5.37;;;4.10;;
7231;SDS011;3657;49.630;11.018;2023-02-04T06:05:57;4.57;;;4.20;;
7231;SDS011;3657;49.630;11.018;2023-02-04T06:08:25;4.83;;;3.40;;
7231;SDS011;3657;49.630;11.018;2023-02-04T06:10:52;5.07;;;3.83;;
7231;SDS011;3657;49.630;11.018;2023-02-04T06:13:19;3.67;;;3.23;;
7231;SDS011;3657;49.630;11.018;2023-02-04T06:15:45;3.37;;;3.13;;
7231;SDS011;3657;49.630;11.018;2023-02-04T06:18:12;2.90;;;2.80;;
7231;SDS011;3657;49.630;11.018;2023-02-04T06:20:39;3.00;;;2.80;;
7231;SDS011;3657;49.630;11.018;2023-02-04T06:23:05;3.23;;;3.00;;
7231;SDS011;3657;49.630;11.018;2023-02-04T06:25:33;2.80;;;2.70;;
7231;SDS011;3657;49.630;11.018;2023-02-04T06:28:01;4.53;;;2.40;;
7231;SDS011;3657;49.630;11.018;2023-02-04T06:30:28;2.83;;;2.63;;
7231;SDS011;3657;49.630;11.018;2023-02-04T06:32:54;2.73;;;2.63;;
7231;SDS011;3657;49.630;11.018;2023-02-04T06:35:21;2.30;;;2.20;;
7231;SDS011;3657;49.630;11.018;2023-02-04T06:37:48;2.90;;;2.80;;
7231;SDS011;3657;49.630;11.018;2023-02-04T06:40:14;3.17;;;2.87;;
7231;SDS011;3657;49.630;11.018;2023-02-04T06:42:43;2.80;;;2.70;;
7231;SDS011;3657;49.630;11.018;2023-02-04T06:45:09;2.73;;;2.60;;
7231;SDS011;3657;49.630;11.018;2023-02-04T06:47:36;2.77;;;2.63;;
7231;SDS011;3657;49.630;11.018;2023-02-04T06:50:03;2.40;;;2.30;;
7231;SDS011;3657;49.630;11.018;2023-02-04T06:52:29;2.30;;;2.10;;
7231;SDS011;3657;49.630;11.018;2023-02-04T06:54:56;2.57;;;2.47;;
7231;SDS011;3657;49.630;11.018;2023-02-04T06:57:23;2.50;;;2.40;;
7231;SDS011;3657;49.630;11.018;2023-02-04T06:59:51;2.80;;;2.70;;
7231;SDS011;3657;49.630;11.018;2023-02-04T07:02:17;2.90;;;2.80;;
7231;SDS011;3657;49.630;11.018;2023-02-04T07:04:44;2.60;;;2.50;;
7231;SDS011;3657;49.630;11.018;2023-02-04T07:07:11;2.90;;;2.83;;
7231;SDS011;3657;49.630;11.018;2023-02-04T07:09:37;2.53;;;2.43;;
7231;SDS011;3657;49.630;11.018;2023-02-04T07:12:04;3.13;;;3.03;;
7231;SDS011;3657;49.630;11.018;2023-02-04T07:14:31;3.17;;;3.07;;
7231;SDS011;3657;49.630;11.018;2023-02-04T07:16:59;3.00;;;2.90;;
7231;SDS011;3657;49.630;11.018;2023-02-04T07:19:26;3.40;;;3.30;;
7231;SDS011;3657;49.630;11.018;2023-02-04T07:21:52;3.23;;;3.13;;
7231;SDS011;3657;49.630;11.018;2023-02-04T07:24:20;3.47;;;3.37;;
7231;SDS011;3657;49.630;11.018;2023-02-04T07:26:47;2.90;;;2.80;;
7231;SDS011;3657;49.630;11.018;2023-02-04T07:29:14;3.50;;;3.40;;
7231;SDS011;3657;49.630;11.018;2023-02-04T07:31:41;3.30;;;3.20;;
7231;SDS011;3657;49.630;11.018;2023-02-04T07:34:10;3.73;;;3.63;;
7231;SDS011;3657;49.630;11.018;2023-02-04T07:36:37;4.23;;;4.13;;
7231;SDS011;3657;49.630;11.018;2023-02-04T07:39:04;3.90;;;3.80;;
7231;SDS011;3657;49.630;11.018;2023-02-04T07:41:30;3.60;;;3.30;;
7231;SDS011;3657;49.630;11.018;2023-02-04T07:43:57;4.20;;;4.10;;
7231;SDS011;3657;49.630;11.018;2023-02-04T07:46:24;4.17;;;3.97;;
7231;SDS011;3657;49.630;11.018;2023-02-04T07:48:51;4.30;;;4.20;;
7231;SDS011;3657;49.630;11.018;2023-02-04T07:51:19;3.40;;;3.30;;
7231;SDS011;3657;49.630;11.018;2023-02-04T07:53:46;3.83;;;3.73;;
7231;SDS011;3657;49.630;11.018;2023-02-04T07:56:12;3.37;;;3.27;;
7231;SDS011;3657;49.630;11.018;2023-02-04T07:58:39;4.10;;;3.90;;
7231;SDS011;3657;49.630;11.018;2023-02-04T08:01:06;3.53;;;3.43;;
7231;SDS011;3657;49.630;11.018;2023-02-04T08:03:32;4.10;;;4.00;;
7231;SDS011;3657;49.630;11.018;2023-02-04T08:05:59;3.03;;;2.93;;
7231;SDS011;3657;49.630;11.018;2023-02-04T08:08:27;3.53;;;3.43;;
7231;SDS011;3657;49.630;11.018;2023-02-04T08:10:54;3.67;;;3.57;;
7231;SDS011;3657;49.630;11.018;2023-02-04T08:13:21;3.30;;;3.20;;
7231;SDS011;3657;49.630;11.018;2023-02-04T08:15:47;3.90;;;3.80;;
7231;SDS011;3657;49.630;11.018;2023-02-04T08:18:14;3.80;;;3.70;;
7231;SDS011;3657;49.630;11.018;2023-02-04T08:20:40;3.20;;;3.00;;
7231;SDS011;3657;49.630;11.018;2023-02-04T08:23:07;3.53;;;3.43;;
7231;SDS011;3657;49.630;11.018;2023-02-04T08:25:35;3.50;;;3.40;;
7231;SDS011;3657;49.630;11.018;2023-02-04T08:28:02;4.23;;;4.13;;
7231;SDS011;3657;49.630;11.018;2023-02-04T08:30:29;3.57;;;3.47;;
7231;SDS011;3657;49.630;11.018;2023-02-04T08:32:56;3.80;;;3.70;;
7231;SDS011;3657;49.630;11.018;2023-02-04T08:35:22;3.33;;;3.23;;
7231;SDS011;3657;49.630;11.018;2023-02-04T08:37:49;3.97;;;3.87;;
7231;SDS011;3657;49.630;11.018;2023-02-04T08:40:16;3.80;;;3.70;;
7231;SDS011;3657;49.630;11.018;2023-02-04T08:42:45;3.70;;;3.50;;
7231;SDS011;3657;49.630;11.018;2023-02-04T08:45:11;4.03;;;3.93;;
7231;SDS011;3657;49.630;11.018;2023-02-04T08:47:38;4.50;;;4.40;;
7231;SDS011;3657;49.630;11.018;2023-02-04T08:50:05;3.47;;;3.37;;
7231;SDS011;3657;49.630;11.018;2023-02-04T08:52:32;3.53;;;3.43;;
7231;SDS011;3657;49.630;11.018;2023-02-04T08:55:00;3.73;;;3.63;;
7231;SDS011;3657;49.630;11.018;2023-02-04T08:57:27;3.80;;;3.60;;
7231;SDS011;3657;49.630;11.018;2023-02-04T08:59:55;3.30;;;3.20;;
7231;SDS011;3657;49.630;11.018;2023-02-04T09:02:22;3.13;;;3.03;;
7231;SDS011;3657;49.630;11.018;2023-02-04T09:04:48;3.80;;;3.70;;
7231;SDS011;3657;49.630;11.018;2023-02-04T09:07:15;2.93;;;2.83;;
7231;SDS011;3657;49.630;11.018;2023-02-04T09:09:42;3.80;;;3.60;;
7231;SDS011;3657;49.630;11.018;2023-02-04T09:12:08;3.70;;;3.60;;
7231;SDS011;3657;49.630;11.018;2023-02-04T09:14:35;3.00;;;2.90;;
7231;SDS011;3657;49.630;11.018;2023-02-04T09:17:03;3.23;;;3.13;;
7231;SDS011;3657;49.630;11.018;2023-02-04T09:19:30;3.37;;;3.27;;
7231;SDS011;3657;49.630;11.018;2023-02-04T09:21:56;3.70;;;3.60;;
7231;SDS011;3657;49.630;11.018;2023-02-04T09:24:23;3.27;;;3.17;;
7231;SDS011;3657;49.630;11.018;2023-02-04T09:26:50;3.17;;;3.07;;
7231;SDS011;3657;49.630;11.018;2023-02-04T09:29:16;3.17;;;2.97;;
7231;SDS011;3657;49.630;11.018;2023-02-04T09:31:43;2.90;;;2.70;;
7231;SDS011;3657;49.630;11.018;2023-02-04T09:34:11;3.63;;;3.53;;
7231;SDS011;3657;49.630;11.018;2023-02-04T09:36:38;3.30;;;3.10;;
7231;SDS011;3657;49.630;11.018;2023-02-04T09:39:05;3.20;;;3.10;;
7231;SDS011;3657;49.630;11.018;2023-02-04T09:41:33;2.40;;;2.40;;
7231;SDS011;3657;49.630;11.018;2023-02-04T09:44:02;2.80;;;2.70;;
7231;SDS011;3657;49.630;11.018;2023-02-04T09:46:29;2.80;;;2.70;;
7231;SDS011;3657;49.630;11.018;2023-02-04T09:48:57;2.37;;;2.27;;
7231;SDS011;3657;49.630;11.018;2023-02-04T09:51:27;2.90;;;2.80;;
7231;SDS011;3657;49.630;11.018;2023-02-04T09:53:57;3.03;;;2.93;;
7231;SDS011;3657;49.630;11.018;2023-02-04T09:56:30;4.80;;;4.60;;
7231;SDS011;3657;49.630;11.018;2023-02-04T09:58:57;3.37;;;3.27;;
7231;SDS011;3657;49.630;11.018;2023-02-04T10:01:25;3.90;;;3.80;;
7231;SDS011;3657;49.630;11.018;2023-02-04T10:03:53;2.50;;;2.40;;
7231;SDS011;3657;49.630;11.018;2023-02-04T10:06:23;2.63;;;2.53;;
7231;SDS011;3657;49.630;11.018;2023-02-04T10:08:51;2.80;;;2.70;;
7231;SDS011;3657;49.630;11.018;2023-02-04T10:11:19;3.33;;;3.13;;
7231;SDS011;3657;49.630;11.018;2023-02-04T10:13:50;2.90;;;2.80;;
7231;SDS011;3657;49.630;11.018;2023-02-04T10:16:18;2.90;;;2.80;;
7231;SDS011;3657;49.630;11.018;2023-02-04T10:18:47;3.57;;;3.47;;
7231;SDS011;3657;49.630;11.018;2023-02-04T10:21:15;3.10;;;3.00;;
7231;SDS011;3657;49.630;11.018;2023-02-04T10:23:46;3.00;;;2.90;;
7231;SDS011;3657;49.630;11.018;2023-02-04T10:26:16;2.80;;;2.70;;
7231;SDS011;3657;49.630;11.018;2023-02-04T10:28:43;3.27;;;3.17;;
7231;SDS011;3657;49.630;11.018;2023-02-04T10:31:25;3.20;;;3.10;;
7231;SDS011;3657;49.630;11.018;2023-02-04T10:34:01;3.47;;;3.37;;
7231;SDS011;3657;49.630;11.018;2023-02-04T10:36:31;2.77;;;2.67;;
7231;SDS011;3657;49.630;11.018;2023-02-04T10:39:00;3.10;;;3.00;;
7231;SDS011;3657;49.630;11.018;2023-02-04T10:41:28;3.90;;;3.80;;
7231;SDS011;3657;49.630;11.018;2023-02-04T10:44:05;3.13;;;3.03;;
7231;SDS011;3657;49.630;11.018;2023-02-04T10:46:34;3.23;;;3.13;;
7231;SDS011;3657;49.630;11.018;2023-02-04T10:49:02;3.43;;;3.33;;
7231;SDS011;3657;49.630;11.018;2023-02-04T10:51:30;3.07;;;2.97;;
7231;SDS011;3657;49.630;11.018;2023-02-04T10:53:57;2.80;;;2.70;;
7231;SDS011;3657;49.630;11.018;2023-02-04T10:56:42;3.10;;;3.00;;
7231;SDS011;3657;49.630;11.018;2023-02-04T10:59:12;3.10;;;3.00;;
7231;SDS011;3657;49.630;11.018;2023-02-04T11:01:47;3.47;;;3.37;;
7231;SDS011;3657;49.630;11.018;2023-02-04T11:04:14;3.03;;;2.93;;
7231;SDS011;3657;49.630;11.018;2023-02-04T11:06:41;2.93;;;2.83;;
7231;SDS011;3657;49.630;11.018;2023-02-04T11:09:10;2.77;;;2.67;;
7231;SDS011;3657;49.630;11.018;2023-02-04T11:11:38;2.60;;;2.50;;
7231;SDS011;3657;49.630;11.018;2023-02-04T11:14:20;2.63;;;2.53;;
7231;SDS011;3657;49.630;11.018;2023-02-04T11:16:48;3.33;;;3.20;;
7231;SDS011;3657;49.630;11.018;2023-02-04T11:19:28;2.40;;;2.30;;
7231;SDS011;3657;49.630;11.018;2023-02-04T11:22:03;2.63;;;2.57;;
7231;SDS011;3657;49.630;11.018;2023-02-04T11:24:32;2.57;;;2.57;;
7231;SDS011;3657;49.630;11.018;2023-02-04T11:27:06;3.50;;;3.30;;
7231;SDS011;3657;49.630;11.018;2023-02-04T11:29:45;2.93;;;2.87;;
7231;SDS011;3657;49.630;11.018;2023-02-04T11:32:25;3.53;;;3.33;;
7231;SDS011;3657;49.630;11.018;2023-02-04T11:35:20;2.13;;;2.13;;
7231;SDS011;3657;49.630;11.018;2023-02-04T11:37:49;2.57;;;2.57;;
7231;SDS011;3657;49.630;11.018;2023-02-04T11:40:20;3.13;;;3.03;;
7231;SDS011;3657;49.630;11.018;2023-02-04T11:42:56;3.47;;;3.37;;
7231;SDS011;3657;49.630;11.018;2023-02-04T11:45:30;3.40;;;3.30;;
7231;SDS011;3657;49.630;11.018;2023-02-04T11:47:59;3.13;;;3.03;;
7231;SDS011;3657;49.630;11.018;2023-02-04T11:50:28;3.17;;;3.07;;
7231;SDS011;3657;49.630;11.018;2023-02-04T11:52:56;3.10;;;3.00;;
7231;SDS011;3657;49.630;11.018;2023-02-04T11:55:26;3.20;;;3.10;;
7231;SDS011;3657;49.630;11.018;2023-02-04T11:57:54;3.00;;;2.90;;
7231;SDS011;3657;49.630;11.018;2023-02-04T12:00:22;3.43;;;3.33;;
7231;SDS011;3657;49.630;11.018;2023-02-04T12:02:54;3.60;;;3.50;;
7231;SDS011;3657;49.630;11.018;2023-02-04T12:05:28;4.50;;;4.30;;
7231;SDS011;3657;49.630;11.018;2023-02-04T12:08:08;4.03;;;3.93;;
7231;SDS011;3657;49.630;11.018;2023-02-04T12:10:36;3.53;;;3.43;;
7231;SDS011;3657;49.630;11.018;2023-02-04T12:13:11;3.63;;;3.53;;
7231;SDS011;3657;49.630;11.018;2023-02-04T12:15:38;4.03;;;3.93;;
7231;SDS011;3657;49.630;11.018;2023-02-04T12:18:06;4.40;;;4.30;;
7231;SDS011;3657;49.630;11.018;2023-02-04T12:20:36;5.83;;;5.63;;
7231;SDS011;3657;49.630;11.018;2023-02-04T12:23:03;4.10;;;4.00;;
7231;SDS011;3657;49.630;11.018;2023-02-04T12:25:30;4.20;;;4.10;;
7231;SDS011;3657;49.630;11.018;2023-02-04T12:27:57;3.97;;;3.87;;
7231;SDS011;3657;49.630;11.018;2023-02-04T12:30:24;3.73;;;3.63;;
7231;SDS011;3657;49.630;11.018;2023-02-04T12:32:51;4.67;;;4.47;;
7231;SDS011;3657;49.630;11.018;2023-02-04T12:35:19;3.87;;;3.77;;
7231;SDS011;3657;49.630;11.018;2023-02-04T12:37:52;5.70;;;5.50;;
7231;SDS011;3657;49.630;11.018;2023-02-04T12:40:19;4.47;;;4.37;;
7231;SDS011;3657;49.630;11.018;2023-02-04T12:42:47;4.40;;;4.30;;
7231;SDS011;3657;49.630;11.018;2023-02-04T12:45:14;4.13;;;3.93;;
7231;SDS011;3657;49.630;11.018;2023-02-04T12:47:41;4.37;;;4.27;;
7231;SDS011;3657;49.630;11.018;2023-02-04T12:50:09;4.30;;;4.20;;
7231;SDS011;3657;49.630;11.018;2023-02-04T12:52:38;4.57;;;4.40;;
7231;SDS011;3657;49.630;11.018;2023-02-04T12:55:06;4.07;;;3.97;;
7231;SDS011;3657;49.630;11.018;2023-02-04T12:57:33;4.90;;;4.80;;
7231;SDS011;3657;49.630;11.018;2023-02-04T13:00:00;5.03;;;4.93;;
7231;SDS011;3657;49.630;11.018;2023-02-04T13:02:27;5.00;;;4.80;;
7231;SDS011;3657;49.630;11.018;2023-02-04T13:04:54;4.57;;;4.40;;
7231;SDS011;3657;49.630;11.018;2023-02-04T13:07:21;4.57;;;4.47;;
7231;SDS011;3657;49.630;11.018;2023-02-04T13:09:49;4.00;;;3.90;;
7231;SDS011;3657;49.630;11.018;2023-02-04T13:12:16;3.60;;;3.50;;
7231;SDS011;3657;49.630;11.018;2023-02-04T13:14:43;3.60;;;3.47;;
7231;SDS011;3657;49.630;11.018;2023-02-04T13:17:09;4.07;;;3.87;;
7231;SDS011;3657;49.630;11.018;2023-02-04T13:19:36;4.37;;;4.27;;
7231;SDS011;3657;49.630;11.018;2023-02-04T13:22:03;5.27;;;5.00;;
7231;SDS011;3657;49.630;11.018;2023-02-04T13:24:30;4.97;;;4.83;;
7231;SDS011;3657;49.630;11.018;2023-02-04T13:26:58;4.43;;;4.33;;
7231;SDS011;3657;49.630;11.018;2023-02-04T13:29:25;4.50;;;4.40;;
7231;SDS011;3657;49.630;11.018;2023-02-04T13:31:51;4.00;;;3.90;;
7231;SDS011;3657;49.630;11.018;2023-02-04T13:34:18;4.00;;;3.90;;
7231;SDS011;3657;49.630;11.018;2023-02-04T13:36:45;4.87;;;4.77;;
7231;SDS011;3657;49.630;11.018;2023-02-04T13:39:12;5.07;;;4.93;;
7231;SDS011;3657;49.630;11.018;2023-02-04T13:41:39;5.53;;;5.33;;
7231;SDS011;3657;49.630;11.018;2023-02-04T13:44:07;4.47;;;4.37;;
7231;SDS011;3657;49.630;11.018;2023-02-04T13:46:33;3.77;;;3.67;;
7231;SDS011;3657;49.630;11.018;2023-02-04T13:49:00;4.80;;;4.70;;
7231;SDS011;3657;49.630;11.018;2023-02-04T13:54:48;3.40;;;3.30;;
7231;SDS011;3657;49.630;11.018;2023-02-04T13:57:15;3.97;;;3.87;;
7231;SDS011;3657;49.630;11.018;2023-02-04T13:59:43;4.17;;;4.07;;
7231;SDS011;3657;49.630;11.018;2023-02-04T14:02:10;4.47;;;4.37;;
7231;SDS011;3657;49.630;11.018;2023-02-04T14:04:36;5.07;;;4.87;;
7231;SDS011;3657;49.630;11.018;2023-02-04T14:07:03;4.40;;;4.30;;
7231;SDS011;3657;49.630;11.018;2023-02-04T14:09:30;4.57;;;4.40;;
7231;SDS011;3657;49.630;11.018;2023-02-04T14:11:56;4.33;;;4.23;;
7231;SDS011;3657;49.630;11.018;2023-02-04T14:14:23;4.70;;;4.60;;
7231;SDS011;3657;49.630;11.018;2023-02-04T14:16:51;3.83;;;3.73;;
7231;SDS011;3657;49.630;11.018;2023-02-04T14:19:18;4.70;;;4.60;;
7231;SDS011;3657;49.630;11.018;2023-02-04T14:21:44;4.73;;;4.60;;
7231;SDS011;3657;49.630;11.018;2023-02-04T14:24:12;5.87;;;5.67;;
7231;SDS011;3657;49.630;11.018;2023-02-04T14:26:41;9.03;;;8.63;;
7231;SDS011;3657;49.630;11.018;2023-02-04T14:29:08;8.87;;;8.57;;
7231;SDS011;3657;49.630;11.018;2023-02-04T14:31:35;6.63;;;6.40;;
7231;SDS011;3657;49.630;11.018;2023-02-04T14:34:03;7.27;;;7.07;;
7231;SDS011;3657;49.630;11.018;2023-02-04T14:36:30;8.17;;;7.87;;
7231;SDS011;3657;49.630;11.018;2023-02-04T14:38:56;6.73;;;6.53;;
7231;SDS011;3657;49.630;11.018;2023-02-04T14:41:23;7.27;;;6.97;;
7231;SDS011;3657;49.630;11.018;2023-02-04T14:43:50;9.13;;;8.80;;
7231;SDS011;3657;49.630;11.018;2023-02-04T14:46:17;7.07;;;6.67;;
7231;SDS011;3657;49.630;11.018;2023-02-04T14:48:44;6.77;;;6.57;;
7231;SDS011;3657;49.630;11.018;2023-02-04T14:51:12;6.83;;;6.63;;
7231;SDS011;3657;49.630;11.018;2023-02-04T14:53:39;6.83;;;6.63;;
7231;SDS011;3657;49.630;11.018;2023-02-04T14:56:05;6.93;;;6.73;;
7231;SDS011;3657;49.630;11.018;2023-02-04T14:58:32;7.03;;;6.83;;
7231;SDS011;3657;49.630;11.018;2023-02-04T15:00:59;12.97;;;12.03;;
7231;SDS011;3657;49.630;11.018;2023-02-04T15:03:25;7.40;;;7.10;;
7231;SDS011;3657;49.630;11.018;2023-02-04T15:05:52;7.63;;;7.33;;